createdAt,value
2022-08-18T00:02:12.607Z,54.26
2022-08-18T00:04:46.821Z,54.21
2022-08-18T00:07:20.410Z,54.80
2022-08-18T00:09:50.273Z,55.19
2022-08-18T00:12:18.606Z,55.57
2022-08-18T00:14:47.114Z,55.68
2022-08-18T00:17:14.558Z,56.02
2022-08-18T00:19:47.513Z,56.15
2022-08-18T00:22:18.671Z,56.45
2022-08-18T00:24:49.288Z,56.43
2022-08-18T00:27:21.609Z,56.61
2022-08-18T00:29:49.895Z,57.08
2022-08-18T00:32:19.421Z,56.95
2022-08-18T00:34:46.753Z,57.11
2022-08-18T00:37:13.818Z,57.20
2022-08-18T00:39:45.985Z,57.25
2022-08-18T00:42:27.593Z,57.42
2022-08-18T00:45:04.194Z,57.63
2022-08-18T00:47:42.711Z,58.04
2022-08-18T00:50:15.273Z,58.19
2022-08-18T00:52:47.565Z,58.46
2022-08-18T00:55:18.254Z,58.51
2022-08-18T00:57:48.688Z,58.85
2022-08-18T01:00:15.885Z,58.97
2022-08-18T01:02:48.137Z,59.08
2022-08-18T01:05:38.177Z,59.24
2022-08-18T01:08:05.599Z,59.76
2022-08-18T01:10:33.668Z,59.72
2022-08-18T01:13:00.584Z,60.01
2022-08-18T01:15:30.501Z,60.45
2022-08-18T01:18:18.413Z,60.58
2022-08-18T01:21:23.223Z,60.61
2022-08-18T01:23:52.503Z,60.91
2022-08-18T01:26:21.817Z,61.10
2022-08-18T01:28:49.984Z,60.96
2022-08-18T01:31:38.596Z,61.08
2022-08-18T01:34:08.260Z,61.14
2022-08-18T01:36:38.574Z,61.30
2022-08-18T01:39:08.530Z,61.42
2022-08-18T01:41:35.295Z,61.37
2022-08-18T01:44:03.511Z,61.66
2022-08-18T01:46:33.866Z,61.62
2022-08-18T01:49:02.000Z,61.69
2022-08-18T01:51:40.127Z,61.64
2022-08-18T01:54:11.360Z,61.71
2022-08-18T01:56:38.418Z,61.64
2022-08-18T01:59:07.674Z,61.47
2022-08-18T02:01:45.259Z,61.33
2022-08-18T02:04:34.602Z,61.49
2022-08-18T02:07:06.796Z,61.23
2022-08-18T02:09:34.239Z,61.34
2022-08-18T02:12:01.799Z,61.25
2022-08-18T02:14:31.209Z,61.27
2022-08-18T02:17:02.297Z,61.10
2022-08-18T02:19:38.693Z,61.41
2022-08-18T02:22:07.219Z,61.15
2022-08-18T02:24:34.295Z,61.43
2022-08-18T02:27:01.544Z,61.15
2022-08-18T02:29:28.918Z,61.13
2022-08-18T02:31:55.950Z,61.45
2022-08-18T02:34:23.368Z,61.51
2022-08-18T02:36:50.386Z,61.46
2022-08-18T02:39:17.446Z,61.75
2022-08-18T02:41:47.210Z,61.61
2022-08-18T02:44:14.452Z,61.82
2022-08-18T02:46:41.479Z,61.39
2022-08-18T02:49:08.563Z,61.37
2022-08-18T02:51:35.988Z,61.50
2022-08-18T02:54:03.028Z,61.20
2022-08-18T02:56:32.751Z,60.84
2022-08-18T02:59:15.336Z,60.73
2022-08-18T03:01:45.509Z,60.99
2022-08-18T03:04:15.801Z,60.66
2022-08-18T03:06:45.504Z,60.60
2022-08-18T03:09:15.088Z,60.71
2022-08-18T03:11:42.665Z,60.50
2022-08-18T03:14:11.792Z,60.48
2022-08-18T03:16:53.281Z,60.25
2022-08-18T03:19:30.982Z,58.97
2022-08-18T03:22:03.006Z,57.89
2022-08-18T03:24:32.486Z,57.10
2022-08-18T03:27:01.882Z,56.73
2022-08-18T03:29:32.427Z,56.11
2022-08-18T03:32:02.218Z,55.65
2022-08-18T03:34:29.910Z,55.37
2022-08-18T03:36:57.085Z,55.51
2022-08-18T03:39:25.198Z,54.91
2022-08-18T03:42:00.225Z,54.77
2022-08-18T03:44:32.039Z,54.50
2022-08-18T03:47:00.379Z,53.95
2022-08-18T03:49:27.526Z,53.66
2022-08-18T03:51:55.846Z,54.13
2022-08-18T03:54:25.771Z,54.67
2022-08-18T03:56:55.545Z,55.13
2022-08-18T03:59:23.893Z,56.08
2022-08-18T04:01:54.064Z,56.29
2022-08-18T04:04:25.378Z,56.04
2022-08-18T04:07:06.281Z,56.46
2022-08-18T04:09:35.268Z,55.90
2022-08-18T04:12:15.547Z,56.29
2022-08-18T04:14:48.791Z,55.91
2022-08-18T04:17:23.411Z,56.36
2022-08-18T04:19:54.769Z,55.88
2022-08-18T04:22:22.807Z,56.09
2022-08-18T04:24:53.283Z,55.86
2022-08-18T04:27:22.568Z,55.86
2022-08-18T04:29:49.526Z,55.69
2022-08-18T04:32:17.159Z,55.55
2022-08-18T04:34:44.606Z,55.39
2022-08-18T04:37:12.009Z,55.15
2022-08-18T04:39:38.952Z,54.88
2022-08-18T04:42:06.301Z,54.34
2022-08-18T04:44:34.391Z,53.49
2022-08-18T04:47:02.227Z,53.26
2022-08-18T04:49:31.613Z,52.25
2022-08-18T04:52:38.361Z,52.07
2022-08-18T04:55:05.975Z,51.83
2022-08-18T04:57:34.809Z,51.83
2022-08-18T05:00:05.181Z,51.78
2022-08-18T05:02:33.182Z,51.18
2022-08-18T05:05:03.385Z,49.99
2022-08-18T05:07:30.494Z,49.20
2022-08-18T05:09:57.906Z,48.50
2022-08-18T05:12:25.935Z,48.01
2022-08-18T05:14:54.402Z,47.43
2022-08-18T05:17:21.740Z,47.22
2022-08-18T05:19:49.944Z,48.31
2022-08-18T05:22:19.717Z,48.40
2022-08-18T05:24:55.956Z,48.04
2022-08-18T05:27:22.852Z,48.13
2022-08-18T05:29:51.614Z,47.87
2022-08-18T05:32:41.044Z,47.71
2022-08-18T05:35:30.789Z,47.15
2022-08-18T05:38:01.719Z,46.64
2022-08-18T05:40:29.486Z,46.45
2022-08-18T05:42:59.375Z,46.83
2022-08-18T05:45:27.539Z,46.54
2022-08-18T05:48:00.223Z,46.38
2022-08-18T05:50:30.166Z,45.97
2022-08-18T05:53:13.931Z,46.37
2022-08-18T05:56:07.569Z,46.48
2022-08-18T05:58:39.079Z,46.02
2022-08-18T06:01:12.271Z,45.92
2022-08-18T06:03:49.472Z,44.83
2022-08-18T06:06:31.036Z,43.86
2022-08-18T06:09:23.982Z,43.62
2022-08-18T06:11:51.377Z,42.86
2022-08-18T06:14:19.078Z,42.64
2022-08-18T06:17:09.850Z,42.49
2022-08-18T06:20:34.469Z,42.07
2022-08-18T06:23:37.063Z,41.05
2022-08-18T06:26:09.173Z,41.18
2022-08-18T06:28:52.901Z,40.82
2022-08-18T06:31:41.524Z,40.80
2022-08-18T06:34:18.316Z,40.65
2022-08-18T06:36:48.259Z,40.45
2022-08-18T06:39:46.308Z,40.38
2022-08-18T06:42:16.459Z,39.97
2022-08-18T06:44:49.101Z,39.66
2022-08-18T06:47:44.688Z,39.62
2022-08-18T06:50:18.230Z,39.61
2022-08-18T06:52:54.610Z,39.31
2022-08-18T06:55:37.209Z,39.10
2022-08-18T06:58:27.053Z,38.73
2022-08-18T07:00:56.050Z,38.57
2022-08-18T07:03:24.984Z,39.26
2022-08-18T07:06:28.572Z,38.24
2022-08-18T07:09:16.980Z,37.60
2022-08-18T07:12:03.023Z,36.97
2022-08-18T07:14:30.092Z,36.79
2022-08-18T07:17:11.607Z,36.51
2022-08-18T07:19:38.977Z,36.27
2022-08-18T07:22:12.925Z,36.27
2022-08-18T07:24:54.742Z,36.15
2022-08-18T07:27:40.357Z,35.74
2022-08-18T07:30:22.296Z,35.98
2022-08-18T07:33:01.607Z,35.88
2022-08-18T07:35:32.739Z,36.61
2022-08-18T07:38:42.816Z,35.38
2022-08-18T07:41:40.292Z,35.57
2022-08-18T07:44:43.319Z,35.35
2022-08-18T07:47:33.134Z,35.25
2022-08-18T07:50:36.423Z,34.76
2022-08-18T07:53:15.435Z,34.96
2022-08-18T07:55:48.100Z,34.49
2022-08-18T07:58:25.985Z,34.48
2022-08-18T08:00:59.155Z,34.42
2022-08-18T08:03:47.846Z,34.62
2022-08-18T08:06:24.046Z,34.09
2022-08-18T08:09:14.631Z,33.80
2022-08-18T08:12:02.310Z,33.87
2022-08-18T08:14:42.490Z,33.80
2022-08-18T08:17:38.825Z,33.85
2022-08-18T08:20:12.555Z,33.50
2022-08-18T08:22:51.674Z,33.54
2022-08-18T08:25:46.802Z,33.18
2022-08-18T08:28:14.480Z,33.16
2022-08-18T08:31:25.537Z,33.34
2022-08-18T08:34:00.738Z,33.52
2022-08-18T08:36:38.270Z,32.96
2022-08-18T08:39:17.874Z,32.81
2022-08-18T08:41:52.547Z,32.99
2022-08-18T08:44:35.212Z,32.93
2022-08-18T08:47:17.601Z,33.22
2022-08-18T08:50:02.261Z,32.67
2022-08-18T08:52:41.338Z,32.87
2022-08-18T08:55:17.379Z,32.91
2022-08-18T08:57:59.992Z,32.66
2022-08-18T09:00:28.454Z,31.41
2022-08-18T09:03:10.303Z,30.78
2022-08-18T09:06:00.248Z,31.32
2022-08-18T09:09:00.753Z,31.21
2022-08-18T09:12:10.831Z,31.65
2022-08-18T09:15:16.757Z,31.67
2022-08-18T09:18:13.053Z,30.44
2022-08-18T09:21:04.028Z,30.39
2022-08-18T09:23:35.566Z,30.16
2022-08-18T09:26:39.027Z,30.37
2022-08-18T09:29:46.475Z,30.16
2022-08-18T09:32:20.256Z,30.14
2022-08-18T09:35:31.198Z,30.03
2022-08-18T09:38:25.934Z,30.50
2022-08-18T09:41:16.302Z,30.43
2022-08-18T09:47:00.387Z,29.44
2022-08-18T09:49:29.241Z,29.41
2022-08-18T09:52:24.192Z,29.84
2022-08-18T09:55:18.266Z,28.69
2022-08-18T09:57:47.951Z,28.76
2022-08-18T10:00:33.673Z,27.31
2022-08-18T10:03:04.294Z,27.85
2022-08-18T10:05:31.923Z,26.78
2022-08-18T10:08:14.852Z,26.52
2022-08-18T10:11:00.685Z,26.03
2022-08-18T10:14:00.165Z,25.67
2022-08-18T10:19:48.046Z,26.79
2022-08-18T10:22:38.625Z,26.15
2022-08-18T10:25:22.762Z,25.72
2022-08-18T10:27:54.683Z,25.72
2022-08-18T10:30:34.483Z,25.55
2022-08-18T10:33:33.035Z,26.14
2022-08-18T10:36:03.067Z,25.89
2022-08-18T10:38:54.076Z,25.86
2022-08-18T10:41:26.254Z,25.78
2022-08-18T10:43:57.768Z,26.33
2022-08-18T10:46:32.637Z,25.82
2022-08-18T10:49:15.160Z,26.08
2022-08-18T10:52:20.685Z,26.45
2022-08-18T10:55:00.390Z,26.17
2022-08-18T10:57:54.641Z,26.47
2022-08-18T11:00:24.023Z,26.43
2022-08-18T11:06:21.207Z,25.83
2022-08-18T11:11:53.494Z,26.10
2022-08-18T11:14:51.140Z,26.53
2022-08-18T11:17:18.291Z,26.98
2022-08-18T11:19:46.866Z,26.90
2022-08-18T11:22:31.537Z,26.47
2022-08-18T11:25:03.264Z,26.41
2022-08-18T11:27:49.554Z,26.89
2022-08-18T11:30:18.848Z,27.07
2022-08-18T11:32:52.252Z,27.05
2022-08-18T11:35:27.825Z,27.03
2022-08-18T11:38:00.082Z,27.60
2022-08-18T11:43:40.774Z,27.50
2022-08-18T11:46:31.942Z,27.76
2022-08-18T11:49:16.259Z,27.90
2022-08-18T11:52:03.043Z,28.08
2022-08-18T11:54:39.862Z,27.87
2022-08-18T11:57:31.508Z,27.73
2022-08-18T12:00:00.434Z,27.62
2022-08-18T12:02:28.816Z,28.13
2022-08-18T12:05:02.974Z,27.34
2022-08-18T12:07:35.347Z,27.80
2022-08-18T12:10:26.480Z,28.26
2022-08-18T12:13:00.489Z,28.29
2022-08-18T12:15:43.871Z,28.18
2022-08-18T12:18:19.025Z,28.22
2022-08-18T12:20:59.047Z,28.24
2022-08-18T12:23:26.700Z,27.93
2022-08-18T12:25:53.855Z,28.40
2022-08-18T12:28:22.202Z,27.66
2022-08-18T12:30:56.593Z,27.93
2022-08-18T12:36:13.646Z,27.95
2022-08-18T12:38:43.730Z,28.33
2022-08-18T12:41:23.590Z,28.46
2022-08-18T12:43:58.967Z,27.98
2022-08-18T12:46:27.558Z,28.22
2022-08-18T12:48:54.860Z,28.24
2022-08-18T12:54:10.836Z,26.53
2022-08-18T12:56:41.517Z,25.94
2022-08-18T12:59:10.588Z,25.98
2022-08-18T13:01:40.064Z,26.15
2022-08-18T13:04:12.858Z,25.36
2022-08-18T13:06:54.066Z,25.61
2022-08-18T13:09:35.073Z,25.40
2022-08-18T13:12:19.305Z,24.69
2022-08-18T13:14:47.391Z,24.67
2022-08-18T13:17:30.414Z,25.13
2022-08-18T13:20:05.607Z,24.41
2022-08-18T13:22:33.391Z,24.82
2022-08-18T13:25:07.403Z,24.58
2022-08-18T13:27:37.589Z,24.85
2022-08-18T13:30:30.426Z,24.66
2022-08-18T13:33:02.681Z,24.83
2022-08-18T13:35:47.556Z,25.09
2022-08-18T13:38:21.978Z,24.62
2022-08-18T13:40:55.529Z,25.01
2022-08-18T13:43:32.099Z,24.82
2022-08-18T13:46:04.033Z,24.64
2022-08-18T13:48:32.410Z,25.21
2022-08-18T13:51:01.666Z,24.94
2022-08-18T13:53:31.480Z,25.56
2022-08-18T13:55:59.222Z,25.49
2022-08-18T13:58:28.272Z,25.36
2022-08-18T14:01:42.339Z,25.19
2022-08-18T14:03:48.298Z,25.18
2022-08-18T14:06:22.939Z,25.22
2022-08-18T14:08:53.147Z,25.52
2022-08-18T14:11:26.741Z,25.68
2022-08-18T14:13:56.516Z,26.14
2022-08-18T14:16:26.565Z,26.29
2022-08-18T14:19:12.793Z,26.51
2022-08-18T14:22:03.991Z,26.46
2022-08-18T14:24:50.629Z,26.61
2022-08-18T14:27:19.578Z,26.52
2022-08-18T14:29:49.836Z,26.40
2022-08-18T14:32:29.469Z,26.57
2022-08-18T14:35:33.306Z,26.43
2022-08-18T14:37:49.927Z,25.88
2022-08-18T14:40:20.280Z,26.22
2022-08-18T14:42:54.525Z,25.95
2022-08-18T14:45:31.311Z,26.40
2022-08-18T14:48:07.688Z,26.25
2022-08-18T14:50:48.965Z,26.83
2022-08-18T14:53:20.185Z,27.01
2022-08-18T14:55:52.726Z,27.08
2022-08-18T14:58:27.820Z,27.35
2022-08-18T15:00:57.357Z,27.43
2022-08-18T15:03:31.213Z,27.46
2022-08-18T15:06:04.745Z,27.42
2022-08-18T15:08:35.189Z,27.68
2022-08-18T15:11:03.729Z,27.81
2022-08-18T15:13:32.208Z,28.06
2022-08-18T15:16:01.980Z,28.18
2022-08-18T15:18:29.961Z,28.52
2022-08-18T15:21:35.352Z,28.63
2022-08-18T15:24:26.029Z,29.14
2022-08-18T15:26:58.216Z,29.41
2022-08-18T15:29:33.542Z,29.82
2022-08-18T15:32:06.061Z,29.76
2022-08-18T15:34:46.640Z,29.78
2022-08-18T15:37:22.232Z,30.46
2022-08-18T15:40:02.479Z,30.43
2022-08-18T15:42:31.648Z,31.01
2022-08-18T15:45:11.665Z,31.11
2022-08-18T15:47:41.688Z,31.28
2022-08-18T15:50:25.169Z,31.63
2022-08-18T15:52:58.117Z,31.51
2022-08-18T15:55:35.843Z,31.81
2022-08-18T15:58:11.081Z,31.69
2022-08-18T16:00:45.851Z,32.04
2022-08-18T16:03:30.065Z,32.12
2022-08-18T16:06:08.277Z,32.57
2022-08-18T16:08:36.905Z,32.44
2022-08-18T16:11:08.826Z,32.68
2022-08-18T16:13:42.280Z,33.20
2022-08-18T16:16:14.776Z,33.24
2022-08-18T16:18:57.384Z,33.62
2022-08-18T16:21:24.610Z,33.66
2022-08-18T16:23:53.602Z,33.27
2022-08-18T16:26:22.114Z,33.35
2022-08-18T16:28:52.426Z,33.53
2022-08-18T16:31:25.077Z,33.26
2022-08-18T16:33:54.225Z,33.43
2022-08-18T16:36:25.690Z,33.59
2022-08-18T16:38:58.141Z,33.67
2022-08-18T16:41:26.918Z,33.78
2022-08-18T16:43:53.894Z,34.00
2022-08-18T16:46:25.360Z,34.21
2022-08-18T16:48:53.962Z,34.25
2022-08-18T16:51:23.571Z,34.32
2022-08-18T16:53:53.130Z,34.36
2022-08-18T16:56:25.824Z,34.56
2022-08-18T16:59:11.388Z,34.38
2022-08-18T17:01:57.744Z,34.43
2022-08-18T17:04:33.639Z,34.94
2022-08-18T17:07:03.602Z,34.89
2022-08-18T17:09:33.125Z,35.16
2022-08-18T17:12:01.370Z,35.09
2022-08-18T17:14:31.048Z,35.06
2022-08-18T17:17:00.303Z,35.38
2022-08-18T17:19:31.231Z,35.52
2022-08-18T17:21:58.454Z,35.29
2022-08-18T17:24:31.812Z,35.61
2022-08-18T17:27:25.990Z,35.78
2022-08-18T17:30:00.665Z,36.02
2022-08-18T17:32:51.804Z,36.36
2022-08-18T17:35:26.895Z,36.59
2022-08-18T17:38:02.502Z,36.46
2022-08-18T17:40:35.395Z,36.66
2022-08-18T17:43:02.960Z,36.92
2022-08-18T17:45:36.628Z,36.76
2022-08-18T17:48:40.966Z,36.87
2022-08-18T17:51:32.025Z,37.14
2022-08-18T17:54:22.075Z,37.09
2022-08-18T17:56:57.439Z,37.49
2022-08-18T17:59:58.083Z,37.46
2022-08-18T18:02:29.824Z,37.72
2022-08-18T18:05:00.632Z,37.91
2022-08-18T18:07:52.819Z,37.78
2022-08-18T18:13:34.624Z,38.20
2022-08-18T18:16:26.279Z,38.00
2022-08-18T18:19:01.493Z,38.17
2022-08-18T18:22:00.662Z,38.38
2022-08-18T18:24:30.632Z,38.75
2022-08-18T18:26:58.562Z,38.83
2022-08-18T18:29:33.321Z,39.30
2022-08-18T18:32:25.730Z,39.52
2022-08-18T18:35:10.242Z,39.64
2022-08-18T18:37:47.497Z,40.17
2022-08-18T18:40:23.208Z,40.38
2022-08-18T18:42:50.813Z,40.90
2022-08-18T18:45:27.972Z,41.05
2022-08-18T18:48:04.838Z,41.14
2022-08-18T18:50:56.228Z,41.59
2022-08-18T18:54:03.601Z,41.79
2022-08-18T18:56:52.067Z,41.87
2022-08-18T18:59:48.169Z,42.29
2022-08-18T19:02:34.161Z,42.16
2022-08-18T19:05:34.424Z,42.64
2022-08-18T19:08:14.193Z,43.19
2022-08-18T19:10:48.135Z,43.54
2022-08-18T19:13:30.359Z,43.87
2022-08-18T19:16:09.732Z,44.16
2022-08-18T19:18:59.791Z,44.48
2022-08-18T19:22:03.642Z,44.96
2022-08-18T19:24:30.354Z,45.37
2022-08-18T19:27:04.173Z,45.55
2022-08-18T19:29:38.454Z,45.65
2022-08-18T19:32:35.349Z,45.79
2022-08-18T19:35:12.307Z,45.86
2022-08-18T19:38:01.865Z,45.99
2022-08-18T19:40:54.533Z,46.04
2022-08-18T19:43:38.564Z,46.36
2022-08-18T19:46:18.517Z,46.51
2022-08-18T19:49:01.478Z,46.41
2022-08-18T19:51:33.330Z,46.82
2022-08-18T19:54:36.940Z,46.84
2022-08-18T19:57:26.106Z,46.98
2022-08-18T20:00:21.747Z,47.13
2022-08-18T20:03:15.819Z,47.63
2022-08-18T20:06:34.727Z,47.64
2022-08-18T20:09:13.142Z,47.73
2022-08-18T20:12:13.388Z,47.78
2022-08-18T20:14:43.703Z,48.05
2022-08-18T20:17:19.374Z,48.33
2022-08-18T20:19:52.506Z,48.45
2022-08-18T20:22:24.331Z,48.43
2022-08-18T20:25:06.142Z,48.20
2022-08-18T20:27:41.919Z,48.47
2022-08-18T20:30:51.559Z,48.55
2022-08-18T20:33:18.666Z,48.88
2022-08-18T20:36:01.398Z,49.20
2022-08-18T20:38:46.431Z,49.20
2022-08-18T20:41:28.888Z,49.38
2022-08-18T20:43:58.563Z,49.49
2022-08-18T20:46:43.517Z,49.94
2022-08-18T20:49:35.205Z,50.17
2022-08-18T20:52:29.638Z,50.52
2022-08-18T20:55:17.131Z,50.83
2022-08-18T20:57:44.599Z,51.08
2022-08-18T21:00:23.907Z,51.29
2022-08-18T21:02:59.962Z,51.44
2022-08-18T21:05:38.230Z,51.77
2022-08-18T21:08:25.176Z,51.92
2022-08-18T21:10:52.243Z,51.93
2022-08-18T21:13:39.657Z,52.07
2022-08-18T21:16:37.696Z,52.25
2022-08-18T21:19:26.010Z,52.38
2022-08-18T21:21:57.180Z,52.52
2022-08-18T21:24:36.313Z,52.45
2022-08-18T21:27:26.480Z,52.52
2022-08-18T21:29:56.819Z,52.19
2022-08-18T21:32:31.636Z,52.35
2022-08-18T21:35:10.080Z,51.97
2022-08-18T21:37:43.294Z,51.46
2022-08-18T21:40:13.686Z,51.20
2022-08-18T21:42:47.953Z,50.87
2022-08-18T21:45:23.198Z,50.81
2022-08-18T21:47:56.795Z,50.54
2022-08-18T21:50:30.018Z,50.42
2022-08-18T21:53:01.069Z,50.43
2022-08-18T21:55:31.821Z,50.32
2022-08-18T21:58:04.744Z,50.21
2022-08-18T22:00:43.885Z,50.40
2022-08-18T22:03:24.910Z,50.57
2022-08-18T22:06:03.476Z,50.46
2022-08-18T22:08:34.340Z,50.25
2022-08-18T22:11:51.888Z,50.43
2022-08-18T22:14:54.293Z,50.36
2022-08-18T22:17:54.321Z,50.20
2022-08-18T22:20:51.491Z,49.79
2022-08-18T22:23:52.231Z,49.64
2022-08-18T22:26:35.129Z,49.64
2022-08-18T22:29:10.550Z,49.76
2022-08-18T22:31:44.088Z,49.55
2022-08-18T22:34:16.330Z,49.59
2022-08-18T22:36:53.058Z,49.79
2022-08-18T22:39:28.547Z,49.83
2022-08-18T22:41:56.625Z,49.87
2022-08-18T22:44:23.797Z,49.62
2022-08-18T22:46:51.350Z,49.90
2022-08-18T22:49:19.958Z,50.04
2022-08-18T22:51:49.707Z,50.35
2022-08-18T22:54:18.419Z,50.44
2022-08-18T22:56:53.862Z,50.58
2022-08-18T22:59:25.453Z,51.04
2022-08-18T23:01:56.004Z,51.10
2022-08-18T23:04:25.422Z,51.32
2022-08-18T23:06:54.456Z,51.49
2022-08-18T23:09:25.712Z,51.43
2022-08-18T23:11:55.042Z,51.58
2022-08-18T23:14:22.459Z,51.75
2022-08-18T23:16:50.352Z,51.77
2022-08-18T23:19:19.529Z,51.84
2022-08-18T23:21:48.848Z,52.12
2022-08-18T23:24:19.397Z,52.35
2022-08-18T23:26:47.540Z,52.37
2022-08-18T23:29:14.542Z,52.60
2022-08-18T23:31:44.574Z,52.64
2022-08-18T23:34:13.695Z,52.79
2022-08-18T23:36:45.362Z,52.81
2022-08-18T23:39:14.201Z,52.74
2022-08-18T23:41:41.249Z,52.58
2022-08-18T23:44:08.349Z,52.67
2022-08-18T23:46:35.774Z,52.91
2022-08-18T23:49:10.560Z,52.79
2022-08-18T23:51:44.095Z,53.02
2022-08-18T23:54:19.261Z,52.96
2022-08-18T23:56:46.669Z,53.04
2022-08-18T23:59:15.274Z,53.06
